Time;durP1;ratioP1;P1;durP2;ratioP2;P2;SDS_P1;SDS_P2;PMS_P1;PMS_P2;Temp;Humidity;BMP_temperature;BMP_pressure;BME280_temperature;BME280_humidity;BME280_pressure;Samples;Min_cycle;Max_cycle;Signal;HPM_P1;HPM_P2
2023/01/29 00:01:14;;;;;;;0.00;0.00;;;;;;;;;;6019522;23;20125;-89
2023/01/29 00:03:40;;;;;;;0.00;0.00;;;;;;;;;;6019767;23;20089;-90
2023/01/29 00:06:07;;;;;;;0.00;0.00;;;;;;;;;;6019743;23;20026;-89
2023/01/29 00:08:37;;;;;;;0.00;0.00;;;;;;;;;;6019244;23;20027;-89
2023/01/29 00:11:03;;;;;;;0.20;0.20;;;;;;;;;;6043357;23;20019;-90
2023/01/29 00:13:30;;;;;;;0.00;0.00;;;;;;;;;;6043141;23;20394;-91
2023/01/29 00:15:56;;;;;;;0.00;0.00;;;;;;;;;;6043149;23;20448;-90
2023/01/29 00:18:22;;;;;;;0.20;0.20;;;;;;;;;;6042873;23;20022;-90
2023/01/29 00:20:48;;;;;;;0.00;0.00;;;;;;;;;;6019869;23;20050;-90
2023/01/29 00:23:14;;;;;;;0.00;0.00;;;;;;;;;;6043142;23;20023;-90
2023/01/29 00:25:41;;;;;;;0.00;0.00;;;;;;;;;;6043117;23;20011;-91
2023/01/29 00:28:07;;;;;;;0.00;0.00;;;;;;;;;;6019259;23;20019;-90
2023/01/29 00:30:33;;;;;;;0.20;0.20;;;;;;;;;;6019552;23;20022;-89
2023/01/29 00:32:59;;;;;;;0.00;0.00;;;;;;;;;;6043140;23;20445;-90
2023/01/29 00:35:25;;;;;;;0.00;0.00;;;;;;;;;;6018924;23;20090;-89
2023/01/29 00:37:51;;;;;;;0.00;0.00;;;;;;;;;;6018954;23;20381;-90
2023/01/29 00:40:17;;;;;;;0.08;0.03;;;;;;;;;;6019401;23;20046;-89
2023/01/29 00:45:30;;;;;;;0.00;0.00;;;;;;;;;;6043250;23;20317;-90
2023/01/29 00:47:56;;;;;;;0.00;0.00;;;;;;;;;;6042680;23;20314;-89
2023/01/29 00:50:22;;;;;;;0.00;0.00;;;;;;;;;;6042972;23;20026;-89
2023/01/29 00:52:50;;;;;;;0.00;0.00;;;;;;;;;;6042743;23;20367;-89
2023/01/29 00:55:16;;;;;;;0.00;0.00;;;;;;;;;;6019162;23;20098;-90
2023/01/29 00:57:43;;;;;;;0.00;0.00;;;;;;;;;;6018950;23;20090;-88
2023/01/29 01:00:10;;;;;;;0.00;0.00;;;;;;;;;;6019532;23;20089;-89
2023/01/29 01:05:21;;;;;;;0.20;0.10;;;;;;;;;;6042793;23;20330;-89
2023/01/29 01:07:48;;;;;;;0.00;0.00;;;;;;;;;;6042288;23;20058;-89
2023/01/29 01:10:20;;;;;;;0.00;0.00;;;;;;;;;;6042574;23;20441;-90
2023/01/29 01:12:57;;;;;;;0.00;0.00;;;;;;;;;;6043031;23;20019;-90
2023/01/29 01:15:30;;;;;;;0.00;0.00;;;;;;;;;;6042523;23;20015;-89
2023/01/29 01:17:58;;;;;;;0.00;0.00;;;;;;;;;;6018479;23;20087;-88
2023/01/29 01:20:25;;;;;;;0.00;0.00;;;;;;;;;;6042600;23;20448;-89
2023/01/29 01:22:52;;;;;;;0.00;0.00;;;;;;;;;;6018579;23;20070;-89
2023/01/29 01:25:18;;;;;;;0.00;0.00;;;;;;;;;;6019005;23;20291;-91
2023/01/29 01:27:45;;;;;;;0.00;0.00;;;;;;;;;;6018730;23;20149;-89
2023/01/29 01:30:12;;;;;;;0.00;0.00;;;;;;;;;;6018957;23;20061;-90
2023/01/29 01:32:38;;;;;;;0.00;0.00;;;;;;;;;;6042409;23;20365;-89
2023/01/29 01:35:05;;;;;;;0.00;0.00;;;;;;;;;;6042460;23;20018;-88
2023/01/29 01:37:31;;;;;;;0.00;0.00;;;;;;;;;;6042404;23;20015;-90
2023/01/29 01:39:57;;;;;;;0.38;0.28;;;;;;;;;;6018828;23;20090;-91
2023/01/29 01:42:32;;;;;;;0.00;0.00;;;;;;;;;;6042374;23;20022;-89
2023/01/29 01:45:04;;;;;;;0.00;0.00;;;;;;;;;;6019017;23;20014;-90
2023/01/29 01:47:30;;;;;;;0.10;0.10;;;;;;;;;;6042154;23;20093;-90
2023/01/29 01:50:01;;;;;;;0.00;0.00;;;;;;;;;;6042373;23;20025;-89
2023/01/29 01:52:28;;;;;;;0.05;0.00;;;;;;;;;;6018775;23;20018;-91
2023/01/29 01:54:54;;;;;;;0.00;0.00;;;;;;;;;;6042158;23;20019;-89
2023/01/29 01:57:23;;;;;;;0.00;0.00;;;;;;;;;;6042186;23;20022;-89
2023/01/29 01:59:52;;;;;;;0.00;0.00;;;;;;;;;;6042470;23;20487;-89
2023/01/29 02:10:44;;;;;;;0.00;0.00;;;;;;;;;;6042452;23;20410;-90
2023/01/29 02:13:11;;;;;;;0.00;0.00;;;;;;;;;;6041996;23;20050;-89
2023/01/29 02:15:40;;;;;;;0.00;0.00;;;;;;;;;;6018699;23;20472;-89
2023/01/29 02:18:07;;;;;;;0.38;0.20;;;;;;;;;;6018396;23;20159;-89
2023/01/29 02:20:34;;;;;;;0.00;0.00;;;;;;;;;;6018648;23;20541;-89
2023/01/29 02:23:09;;;;;;;0.00;0.00;;;;;;;;;;6042048;23;20094;-89
2023/01/29 02:25:57;;;;;;;0.00;0.00;;;;;;;;;;6018639;23;20093;-89
2023/01/29 02:28:31;;;;;;;0.05;0.05;;;;;;;;;;6042037;23;20011;-90
2023/01/29 02:31:08;;;;;;;0.00;0.00;;;;;;;;;;6042401;23;20017;-90
2023/01/29 02:33:52;;;;;;;0.00;0.00;;;;;;;;;;6041841;23;20319;-89
2023/01/29 02:36:21;;;;;;;0.00;0.00;;;;;;;;;;6042132;23;20015;-90
2023/01/29 02:39:06;;;;;;;0.00;0.00;;;;;;;;;;6018329;23;20047;-89
2023/01/29 02:41:42;;;;;;;0.00;0.00;;;;;;;;;;6018393;23;20015;-90
2023/01/29 02:44:17;;;;;;;0.00;0.00;;;;;;;;;;6042036;23;20022;-89
2023/01/29 02:46:43;;;;;;;0.10;0.05;;;;;;;;;;6042070;23;20093;-91
2023/01/29 02:49:22;;;;;;;0.00;0.00;;;;;;;;;;6018408;23;20023;-89
2023/01/29 02:51:56;;;;;;;0.00;0.00;;;;;;;;;;6018743;23;20019;-89
2023/01/29 02:54:26;;;;;;;0.00;0.00;;;;;;;;;;6017929;23;20026;-90
2023/01/29 02:56:58;;;;;;;0.00;0.00;;;;;;;;;;6018535;23;20011;-89
2023/01/29 02:59:36;;;;;;;0.00;0.00;;;;;;;;;;6042735;23;20441;-89
2023/01/29 03:02:04;;;;;;;0.45;0.43;;;;;;;;;;6020262;23;20018;-89
2023/01/29 03:04:32;;;;;;;0.22;0.20;;;;;;;;;;6019799;23;20106;-90
2023/01/29 03:07:00;;;;;;;0.05;0.00;;;;;;;;;;6043555;23;20071;-89
2023/01/29 03:09:33;;;;;;;1.65;0.38;;;;;;;;;;6043759;23;20093;-89
2023/01/29 03:12:17;;;;;;;0.73;0.30;;;;;;;;;;6020070;23;20023;-90
2023/01/29 03:17:33;;;;;;;0.98;0.20;;;;;;;;;;6043789;23;20082;-89
2023/01/29 03:19:59;;;;;;;0.00;0.00;;;;;;;;;;6043952;23;20344;-89
2023/01/29 03:22:26;;;;;;;0.38;0.05;;;;;;;;;;6019961;23;20034;-91
2023/01/29 03:34:03;;;;;;;0.00;0.00;;;;;;;;;;6043405;23;20023;-90
2023/01/29 03:36:44;;;;;;;0.10;0.10;;;;;;;;;;6019907;23;20046;-91
2023/01/29 03:39:10;;;;;;;0.55;0.40;;;;;;;;;;6019857;23;20014;-90
2023/01/29 03:41:40;;;;;;;0.00;0.00;;;;;;;;;;6020040;23;20318;-89
2023/01/29 03:44:06;;;;;;;0.20;0.15;;;;;;;;;;6019865;23;20015;-90
2023/01/29 03:46:47;;;;;;;0.00;0.00;;;;;;;;;;6043512;23;20015;-89
2023/01/29 03:49:28;;;;;;;0.25;0.17;;;;;;;;;;6043855;23;20070;-90
2023/01/29 03:52:10;;;;;;;0.40;0.30;;;;;;;;;;6043465;23;20011;-91
2023/01/29 03:54:36;;;;;;;0.00;0.00;;;;;;;;;;6043121;23;20015;-90
2023/01/29 03:57:15;;;;;;;0.00;0.00;;;;;;;;;;6043410;23;20086;-90
2023/01/29 03:59:44;;;;;;;0.00;0.00;;;;;;;;;;6043203;23;20346;-90
2023/01/29 04:02:13;;;;;;;0.00;0.00;;;;;;;;;;6043491;23;20011;-90
2023/01/29 04:04:41;;;;;;;0.00;0.00;;;;;;;;;;6019704;23;20393;-90
2023/01/29 04:07:12;;;;;;;0.10;0.10;;;;;;;;;;6019241;23;20022;-89
2023/01/29 04:09:59;;;;;;;0.00;0.00;;;;;;;;;;6042798;23;20019;-90
2023/01/29 04:12:36;;;;;;;0.25;0.05;;;;;;;;;;6043360;23;20019;-89
2023/01/29 04:15:03;;;;;;;0.00;0.00;;;;;;;;;;6043055;23;20018;-89
2023/01/29 04:17:33;;;;;;;0.00;0.00;;;;;;;;;;6043266;23;20053;-90
2023/01/29 04:19:59;;;;;;;0.00;0.00;;;;;;;;;;6043061;23;20082;-89
2023/01/29 04:22:32;;;;;;;0.00;0.00;;;;;;;;;;6043139;23;20023;-90
2023/01/29 04:25:01;;;;;;;0.00;0.00;;;;;;;;;;6042844;23;20018;-89
2023/01/29 04:27:37;;;;;;;0.22;0.15;;;;;;;;;;6019500;23;20053;-89
2023/01/29 04:30:10;;;;;;;0.00;0.00;;;;;;;;;;6042826;23;20448;-90
2023/01/29 04:32:54;;;;;;;0.00;0.00;;;;;;;;;;6019560;23;20015;-89
2023/01/29 04:35:39;;;;;;;0.00;0.00;;;;;;;;;;6043101;23;20022;-89
2023/01/29 04:38:18;;;;;;;0.00;0.00;;;;;;;;;;6019488;23;20010;-90
2023/01/29 04:40:59;;;;;;;0.00;0.00;;;;;;;;;;6017418;23;20015;-89
2023/01/29 04:43:27;;;;;;;0.10;0.10;;;;;;;;;;6042959;23;20017;-89
2023/01/29 04:45:56;;;;;;;0.88;0.13;;;;;;;;;;6042755;23;20017;-89
2023/01/29 04:48:22;;;;;;;0.00;0.00;;;;;;;;;;6042828;23;20017;-89
2023/01/29 04:51:04;;;;;;;0.00;0.00;;;;;;;;;;6019089;23;20038;-89
2023/01/29 04:53:49;;;;;;;0.00;0.00;;;;;;;;;;6019354;23;20386;-89
2023/01/29 04:56:20;;;;;;;0.00;0.00;;;;;;;;;;6042669;23;20341;-88
2023/01/29 04:58:48;;;;;;;0.00;0.00;;;;;;;;;;6042780;23;20457;-89
2023/01/29 05:01:17;;;;;;;0.00;0.00;;;;;;;;;;6018541;23;20021;-89
2023/01/29 05:03:44;;;;;;;0.35;0.10;;;;;;;;;;6043974;23;20015;-89
2023/01/29 05:06:11;;;;;;;0.00;0.00;;;;;;;;;;6042510;23;20014;-90
2023/01/29 05:08:38;;;;;;;0.13;0.10;;;;;;;;;;6043334;23;20070;-89
2023/01/29 05:11:04;;;;;;;2.08;0.38;;;;;;;;;;6018861;23;20405;-90
2023/01/29 05:13:32;;;;;;;0.00;0.00;;;;;;;;;;6042727;23;20066;-89
2023/01/29 05:16:19;;;;;;;0.32;0.15;;;;;;;;;;6018740;23;20025;-90
2023/01/29 05:18:45;;;;;;;0.00;0.00;;;;;;;;;;6042728;23;20314;-90
2023/01/29 05:21:12;;;;;;;0.00;0.00;;;;;;;;;;6042265;23;20011;-91
2023/01/29 05:23:38;;;;;;;0.00;0.00;;;;;;;;;;6042766;23;20118;-89
2023/01/29 05:26:04;;;;;;;0.00;0.00;;;;;;;;;;6042466;23;20086;-90
2023/01/29 05:28:30;;;;;;;0.00;0.00;;;;;;;;;;6018728;23;20377;-90
2023/01/29 05:30:56;;;;;;;0.00;0.00;;;;;;;;;;6042436;23;20025;-87
2023/01/29 05:33:23;;;;;;;0.00;0.00;;;;;;;;;;6019112;23;20073;-89
2023/01/29 05:35:50;;;;;;;2.28;0.43;;;;;;;;;;6018555;23;20054;-90
2023/01/29 05:38:17;;;;;;;0.00;0.00;;;;;;;;;;6042519;23;20119;-90
2023/01/29 05:40:43;;;;;;;0.88;0.15;;;;;;;;;;6042603;23;20389;-90
2023/01/29 05:43:17;;;;;;;0.98;0.80;;;;;;;;;;6043385;23;20089;-90
2023/01/29 05:45:51;;;;;;;0.00;0.00;;;;;;;;;;6018607;23;20018;-89
2023/01/29 05:48:16;;;;;;;0.00;0.00;;;;;;;;;;6018910;23;20021;-91
2023/01/29 05:50:42;;;;;;;0.00;0.00;;;;;;;;;;6042544;23;20337;-90
2023/01/29 05:53:09;;;;;;;0.00;0.00;;;;;;;;;;6042481;23;20022;-89
2023/01/29 05:55:35;;;;;;;0.90;0.20;;;;;;;;;;6018464;23;20038;-89
2023/01/29 05:58:01;;;;;;;1.17;0.30;;;;;;;;;;6042348;23;20062;-89
2023/01/29 06:00:27;;;;;;;0.30;0.13;;;;;;;;;;6018437;23;20014;-89
2023/01/29 06:02:53;;;;;;;0.68;0.32;;;;;;;;;;6042450;23;20017;-88
2023/01/29 06:05:19;;;;;;;0.00;0.00;;;;;;;;;;6042251;23;20093;-89
2023/01/29 06:07:45;;;;;;;0.65;0.20;;;;;;;;;;6018437;23;20437;-89
2023/01/29 06:10:16;;;;;;;0.15;0.15;;;;;;;;;;6018369;23;20097;-90
2023/01/29 06:12:42;;;;;;;0.00;0.00;;;;;;;;;;6018907;23;20046;-89
2023/01/29 06:15:09;;;;;;;0.47;0.28;;;;;;;;;;6018510;23;20026;-90
2023/01/29 06:17:35;;;;;;;0.20;0.10;;;;;;;;;;6042289;23;20011;-90
2023/01/29 06:20:01;;;;;;;0.55;0.10;;;;;;;;;;6042402;23;20066;-90
2023/01/29 06:22:27;;;;;;;0.00;0.00;;;;;;;;;;6042330;23;20468;-89
2023/01/29 06:24:52;;;;;;;0.88;0.20;;;;;;;;;;6018353;23;20026;-89
2023/01/29 06:27:18;;;;;;;0.00;0.00;;;;;;;;;;6018607;23;20015;-89
2023/01/29 06:29:44;;;;;;;0.20;0.20;;;;;;;;;;6042100;23;20064;-89
2023/01/29 06:32:10;;;;;;;0.00;0.00;;;;;;;;;;6018649;23;20349;-90
2023/01/29 06:34:36;;;;;;;0.00;0.00;;;;;;;;;;6043439;23;20026;-88
2023/01/29 06:37:02;;;;;;;0.00;0.00;;;;;;;;;;6020247;23;20083;-89
2023/01/29 06:39:28;;;;;;;0.00;0.00;;;;;;;;;;6043994;23;20015;-89
2023/01/29 06:41:54;;;;;;;0.32;0.10;;;;;;;;;;6043898;23;20011;-88
2023/01/29 06:44:20;;;;;;;0.00;0.00;;;;;;;;;;6020451;23;20377;-90
2023/01/29 06:46:46;;;;;;;0.22;0.05;;;;;;;;;;6043750;23;20015;-90
2023/01/29 06:49:13;;;;;;;0.30;0.13;;;;;;;;;;6044031;23;20015;-90
2023/01/29 06:51:39;;;;;;;0.43;0.30;;;;;;;;;;6020038;23;20457;-90
2023/01/29 06:54:07;;;;;;;0.03;0.00;;;;;;;;;;6020316;23;20089;-89
2023/01/29 06:56:33;;;;;;;0.00;0.00;;;;;;;;;;6043809;23;20363;-90
2023/01/29 06:58:59;;;;;;;0.00;0.00;;;;;;;;;;6020467;23;20470;-90
2023/01/29 07:01:25;;;;;;;0.00;0.00;;;;;;;;;;6019999;23;20022;-90
2023/01/29 07:03:51;;;;;;;0.00;0.00;;;;;;;;;;6043923;23;20501;-89
2023/01/29 07:06:17;;;;;;;0.00;0.00;;;;;;;;;;6043978;23;20047;-89
2023/01/29 07:08:43;;;;;;;0.00;0.00;;;;;;;;;;6043702;23;20031;-89
2023/01/29 07:11:09;;;;;;;0.00;0.00;;;;;;;;;;6020129;23;20022;-90
2023/01/29 07:13:35;;;;;;;0.22;0.13;;;;;;;;;;6043829;23;20026;-90
2023/01/29 07:16:02;;;;;;;0.10;0.00;;;;;;;;;;6043558;23;20011;-89
2023/01/29 07:18:28;;;;;;;0.38;0.22;;;;;;;;;;6043845;23;20011;-90
2023/01/29 07:20:54;;;;;;;0.10;0.10;;;;;;;;;;6043539;23;20385;-90
2023/01/29 07:23:21;;;;;;;0.90;0.35;;;;;;;;;;6043701;23;20345;-90
2023/01/29 07:25:48;;;;;;;0.25;0.17;;;;;;;;;;6019602;23;20017;-89
2023/01/29 07:28:15;;;;;;;0.00;0.00;;;;;;;;;;6043608;23;20065;-90
2023/01/29 07:30:41;;;;;;;0.08;0.08;;;;;;;;;;6043436;23;20055;-89
2023/01/29 07:33:08;;;;;;;0.10;0.03;;;;;;;;;;6020005;23;20014;-89
2023/01/29 07:35:38;;;;;;;0.30;0.10;;;;;;;;;;6043223;23;20091;-89
2023/01/29 07:38:04;;;;;;;0.00;0.00;;;;;;;;;;6019858;23;20067;-89
2023/01/29 07:40:30;;;;;;;0.50;0.35;;;;;;;;;;6043276;23;20018;-90
2023/01/29 07:42:59;;;;;;;9.68;1.48;;;;;;;;;;6020080;23;20095;-89
2023/01/29 07:45:25;;;;;;;1.70;0.47;;;;;;;;;;6043332;23;20018;-90
2023/01/29 07:47:53;;;;;;;1.27;0.20;;;;;;;;;;6043115;23;20021;-89
2023/01/29 07:50:19;;;;;;;0.10;0.00;;;;;;;;;;6043477;23;20014;-89
2023/01/29 07:52:45;;;;;;;0.22;0.20;;;;;;;;;;6043581;23;20098;-89
2023/01/29 07:55:11;;;;;;;0.20;0.10;;;;;;;;;;6043516;23;20018;-88
2023/01/29 07:57:37;;;;;;;0.30;0.25;;;;;;;;;;6043112;23;20015;-89
2023/01/29 08:00:03;;;;;;;0.08;0.08;;;;;;;;;;6019729;23;20014;-89
2023/01/29 08:02:29;;;;;;;0.20;0.20;;;;;;;;;;6042869;23;20329;-88
2023/01/29 08:04:55;;;;;;;0.32;0.25;;;;;;;;;;6043502;23;20019;-91
2023/01/29 08:07:21;;;;;;;0.32;0.17;;;;;;;;;;6019924;23;20053;-91
2023/01/29 08:09:47;;;;;;;0.00;0.00;;;;;;;;;;6043756;23;20025;-90
2023/01/29 08:12:13;;;;;;;0.20;0.10;;;;;;;;;;6043491;23;20085;-92
2023/01/29 08:14:39;;;;;;;0.00;0.00;;;;;;;;;;6043829;23;20026;-91
2023/01/29 08:17:05;;;;;;;0.55;0.38;;;;;;;;;;6019106;23;20098;-93
2023/01/29 08:19:31;;;;;;;0.35;0.20;;;;;;;;;;6019976;23;20034;-93
2023/01/29 08:21:57;;;;;;;0.05;0.05;;;;;;;;;;6019554;23;20011;-91
2023/01/29 08:24:23;;;;;;;0.00;0.00;;;;;;;;;;6019824;23;20407;-91
2023/01/29 08:26:49;;;;;;;0.22;0.22;;;;;;;;;;6019658;23;20025;-91
2023/01/29 08:29:15;;;;;;;0.38;0.10;;;;;;;;;;6019621;23;20097;-91
2023/01/29 08:31:41;;;;;;;0.32;0.15;;;;;;;;;;6018613;23;20025;-90
2023/01/29 08:34:07;;;;;;;0.57;0.20;;;;;;;;;;6020274;23;20019;-92
2023/01/29 08:36:33;;;;;;;0.52;0.00;;;;;;;;;;6043371;23;20022;-90
2023/01/29 08:38:59;;;;;;;0.30;0.28;;;;;;;;;;6020001;23;20018;-91
2023/01/29 08:41:25;;;;;;;0.15;0.00;;;;;;;;;;6043123;23;20143;-90
2023/01/29 08:43:51;;;;;;;0.00;0.00;;;;;;;;;;6019765;23;20058;-91
2023/01/29 08:46:17;;;;;;;0.00;0.00;;;;;;;;;;6043084;23;20349;-91
2023/01/29 08:48:43;;;;;;;0.25;0.25;;;;;;;;;;6019450;23;20097;-91
2023/01/29 08:51:09;;;;;;;0.05;0.00;;;;;;;;;;6042928;23;20022;-91
2023/01/29 08:53:35;;;;;;;0.03;0.03;;;;;;;;;;6019160;23;20015;-92
2023/01/29 08:56:01;;;;;;;0.38;0.15;;;;;;;;;;6042675;23;20464;-90
2023/01/29 08:58:27;;;;;;;0.30;0.20;;;;;;;;;;6019027;23;20015;-89
2023/01/29 09:00:53;;;;;;;2.63;0.47;;;;;;;;;;6042771;23;20449;-90
2023/01/29 09:03:19;;;;;;;2.55;1.45;;;;;;;;;;6042567;23;20078;-89
2023/01/29 09:05:45;;;;;;;0.50;0.10;;;;;;;;;;6042101;23;20405;-91
2023/01/29 09:08:11;;;;;;;0.15;0.15;;;;;;;;;;6018604;23;20061;-90
2023/01/29 09:10:37;;;;;;;0.00;0.00;;;;;;;;;;6042897;23;20445;-90
2023/01/29 09:13:04;;;;;;;0.68;0.50;;;;;;;;;;6042703;23;20146;-90
2023/01/29 09:15:30;;;;;;;0.32;0.32;;;;;;;;;;6019438;23;20023;-91
2023/01/29 09:17:56;;;;;;;0.10;0.00;;;;;;;;;;6042822;23;20015;-90
2023/01/29 09:20:22;;;;;;;0.40;0.35;;;;;;;;;;6019375;23;20333;-90
2023/01/29 09:22:50;;;;;;;0.30;0.20;;;;;;;;;;6042518;23;20014;-91
2023/01/29 09:25:16;;;;;;;0.08;0.08;;;;;;;;;;6042946;23;20057;-90
2023/01/29 09:27:42;;;;;;;1.60;0.22;;;;;;;;;;6042371;23;20378;-89
2023/01/29 09:30:09;;;;;;;0.00;0.00;;;;;;;;;;6042647;23;20093;-88
2023/01/29 09:32:35;;;;;;;0.13;0.10;;;;;;;;;;6042185;23;20073;-90
2023/01/29 09:35:01;;;;;;;1.00;0.43;;;;;;;;;;6042485;23;20023;-91
2023/01/29 09:37:27;;;;;;;0.82;0.30;;;;;;;;;;6018642;23;20089;-89
2023/01/29 09:39:53;;;;;;;0.32;0.25;;;;;;;;;;6042444;23;20389;-90
2023/01/29 09:42:31;;;;;;;0.30;0.10;;;;;;;;;;6018652;23;20015;-89
2023/01/29 09:45:03;;;;;;;1.65;0.43;;;;;;;;;;6042535;23;20046;-91
2023/01/29 09:47:31;;;;;;;0.65;0.28;;;;;;;;;;6042308;23;20349;-91
2023/01/29 09:50:21;;;;;;;0.85;0.15;;;;;;;;;;6042781;23;20025;-90
2023/01/29 09:53:16;;;;;;;0.15;0.15;;;;;;;;;;6011244;23;20050;-90
2023/01/29 09:55:45;;;;;;;0.30;0.10;;;;;;;;;;6006981;23;20019;-90
2023/01/29 09:58:11;;;;;;;1.63;0.52;;;;;;;;;;6042036;23;20019;-90
2023/01/29 10:00:56;;;;;;;0.00;0.00;;;;;;;;;;6016121;23;20045;-89
2023/01/29 10:06:16;;;;;;;0.55;0.55;;;;;;;;;;6071384;23;20034;-90
2023/01/29 10:09:01;;;;;;;0.00;0.00;;;;;;;;;;6043614;23;20047;-91
2023/01/29 10:11:27;;;;;;;0.85;0.25;;;;;;;;;;6044928;23;20364;-92
2023/01/29 10:13:53;;;;;;;0.45;0.32;;;;;;;;;;6044335;23;20071;-91
2023/01/29 10:16:30;;;;;;;1.80;1.25;;;;;;;;;;6020676;23;20460;-92
2023/01/29 10:19:15;;;;;;;0.08;0.03;;;;;;;;;;6044340;23;20018;-91
2023/01/29 10:21:54;;;;;;;0.15;0.08;;;;;;;;;;6021145;23;20015;-91
2023/01/29 10:24:20;;;;;;;0.65;0.40;;;;;;;;;;6020450;23;20463;-92
2023/01/29 10:26:46;;;;;;;0.60;0.17;;;;;;;;;;6044397;23;20065;-91
2023/01/29 10:29:15;;;;;;;0.43;0.28;;;;;;;;;;6045158;23;20030;-92
2023/01/29 10:31:42;;;;;;;1.35;0.20;;;;;;;;;;6045003;23;20178;-92
2023/01/29 10:34:23;;;;;;;1.80;1.00;;;;;;;;;;6021250;23;20019;-93
2023/01/29 10:36:49;;;;;;;0.00;0.00;;;;;;;;;;6022928;23;20015;-94
2023/01/29 10:39:17;;;;;;;0.38;0.35;;;;;;;;;;6021283;23;20376;-93
2023/01/29 10:41:55;;;;;;;0.00;0.00;;;;;;;;;;6021089;23;20011;-94
2023/01/29 10:44:37;;;;;;;1.08;0.65;;;;;;;;;;6021008;23;20014;-93
2023/01/29 10:47:28;;;;;;;0.10;0.10;;;;;;;;;;6044845;23;20046;-94
2023/01/29 10:50:27;;;;;;;0.55;0.28;;;;;;;;;;6021268;23;20061;-93
2023/01/29 10:52:58;;;;;;;0.20;0.10;;;;;;;;;;5975347;23;20066;-94
2023/01/29 10:55:34;;;;;;;0.22;0.15;;;;;;;;;;6021312;23;20022;-95
2023/01/29 10:58:03;;;;;;;0.30;0.17;;;;;;;;;;6042950;23;20011;-93
2023/01/29 11:00:37;;;;;;;0.00;0.00;;;;;;;;;;6021295;23;20015;-94
2023/01/29 11:03:11;;;;;;;0.08;0.08;;;;;;;;;;6021085;23;20014;-94
2023/01/29 11:05:41;;;;;;;0.75;0.20;;;;;;;;;;6021016;23;20023;-93
2023/01/29 11:08:16;;;;;;;0.38;0.25;;;;;;;;;;6020890;23;20025;-94
2023/01/29 11:10:47;;;;;;;1.10;0.43;;;;;;;;;;6044682;23;20069;-94
2023/01/29 11:13:14;;;;;;;2.60;0.43;;;;;;;;;;6044988;23;20057;-94
2023/01/29 11:15:41;;;;;;;0.52;0.20;;;;;;;;;;6020898;23;20019;-95
2023/01/29 11:18:14;;;;;;;1.20;0.32;;;;;;;;;;6044841;23;20049;-94
2023/01/29 11:20:44;;;;;;;0.17;0.17;;;;;;;;;;6044356;23;20114;-94
2023/01/29 11:23:26;;;;;;;1.70;0.50;;;;;;;;;;6020865;23;20014;-94
2023/01/29 11:25:53;;;;;;;1.30;0.60;;;;;;;;;;6048953;23;20019;-95
2023/01/29 11:28:43;;;;;;;0.45;0.30;;;;;;;;;;6024231;23;20523;-94
2023/01/29 11:31:36;;;;;;;0.00;0.00;;;;;;;;;;6022823;23;20046;-95
2023/01/29 11:34:05;;;;;;;1.15;0.30;;;;;;;;;;6019383;23;20015;-93
2023/01/29 11:36:36;;;;;;;0.52;0.28;;;;;;;;;;6021404;23;20054;-94
2023/01/29 11:39:14;;;;;;;0.70;0.15;;;;;;;;;;6021014;23;20130;-94
2023/01/29 11:41:48;;;;;;;3.90;1.35;;;;;;;;;;6045123;23;20015;-93
2023/01/29 11:44:26;;;;;;;1.27;0.20;;;;;;;;;;6044395;23;20531;-94
2023/01/29 11:46:56;;;;;;;1.05;0.95;;;;;;;;;;6021503;23;20026;-93
2023/01/29 11:49:33;;;;;;;0.35;0.20;;;;;;;;;;6023094;23;20015;-93
2023/01/29 11:52:00;;;;;;;0.55;0.52;;;;;;;;;;6025534;23;20021;-94
2023/01/29 11:54:29;;;;;;;0.00;0.00;;;;;;;;;;6046544;23;20019;-95
2023/01/29 11:56:58;;;;;;;1.17;0.30;;;;;;;;;;6045649;23;20077;-93
2023/01/29 11:59:36;;;;;;;0.13;0.13;;;;;;;;;;6046217;23;20011;-95
2023/01/29 12:02:21;;;;;;;0.95;0.70;;;;;;;;;;6022127;23;20015;-94
2023/01/29 12:04:50;;;;;;;0.00;0.00;;;;;;;;;;6022163;23;20018;-94
2023/01/29 12:07:20;;;;;;;0.52;0.32;;;;;;;;;;6025099;23;20027;-96
2023/01/29 12:09:59;;;;;;;0.90;0.75;;;;;;;;;;6024028;23;20023;-93
2023/01/29 12:12:57;;;;;;;0.52;0.52;;;;;;;;;;6046353;23;20460;-96
2023/01/29 12:15:23;;;;;;;0.57;0.30;;;;;;;;;;6001084;23;20372;-94
2023/01/29 12:17:57;;;;;;;0.10;0.10;;;;;;;;;;6046112;23;20019;-94
2023/01/29 12:20:27;;;;;;;0.08;0.00;;;;;;;;;;6042547;23;20077;-93
2023/01/29 12:23:19;;;;;;;0.55;0.20;;;;;;;;;;6045677;23;20023;-94
2023/01/29 12:25:57;;;;;;;1.65;0.85;;;;;;;;;;6045080;23;20451;-93
2023/01/29 12:28:44;;;;;;;0.65;0.32;;;;;;;;;;6020973;23;20015;-95
2023/01/29 12:31:18;;;;;;;0.43;0.38;;;;;;;;;;6021470;23;20014;-93
2023/01/29 12:33:54;;;;;;;0.22;0.20;;;;;;;;;;6044604;23;20015;-94
2023/01/29 12:36:40;;;;;;;0.65;0.65;;;;;;;;;;6045758;23;20015;-94
2023/01/29 12:39:08;;;;;;;0.35;0.25;;;;;;;;;;6042699;23;20075;-93
2023/01/29 12:41:52;;;;;;;0.00;0.00;;;;;;;;;;6020033;23;20014;-94
2023/01/29 12:44:30;;;;;;;0.55;0.35;;;;;;;;;;6018047;23;20070;-93
2023/01/29 12:47:01;;;;;;;0.15;0.13;;;;;;;;;;6050677;23;20033;-96
2023/01/29 12:49:35;;;;;;;0.00;0.00;;;;;;;;;;6034024;23;20158;-93
2023/01/29 12:52:08;;;;;;;0.32;0.30;;;;;;;;;;6031763;23;20025;-95
2023/01/29 12:54:52;;;;;;;0.20;0.10;;;;;;;;;;6024566;23;20015;-95
2023/01/29 12:57:26;;;;;;;0.73;0.20;;;;;;;;;;6023627;23;20015;-94
2023/01/29 12:59:54;;;;;;;0.35;0.15;;;;;;;;;;6039574;23;20070;-94
2023/01/29 13:02:32;;;;;;;0.38;0.38;;;;;;;;;;6050745;23;20029;-93
2023/01/29 13:05:13;;;;;;;0.40;0.08;;;;;;;;;;6049487;23;20034;-93
2023/01/29 13:07:56;;;;;;;0.00;0.00;;;;;;;;;;6096675;23;20026;-94
2023/01/29 13:10:33;;;;;;;2.83;1.08;;;;;;;;;;6072642;23;20146;-93
2023/01/29 13:13:03;;;;;;;2.50;1.13;;;;;;;;;;6048678;23;20029;-92
2023/01/29 13:15:39;;;;;;;0.22;0.10;;;;;;;;;;6048319;23;20348;-94
2023/01/29 13:18:29;;;;;;;0.00;0.00;;;;;;;;;;6048321;23;20347;-95
2023/01/29 13:20:56;;;;;;;0.25;0.15;;;;;;;;;;6048490;23;20085;-93
2023/01/29 13:23:25;;;;;;;1.50;0.60;;;;;;;;;;6072132;23;20056;-93
2023/01/29 13:25:54;;;;;;;0.68;0.45;;;;;;;;;;6048256;23;20014;-92
2023/01/29 13:28:25;;;;;;;0.30;0.20;;;;;;;;;;6048307;23;20022;-94
2023/01/29 13:31:13;;;;;;;0.00;0.00;;;;;;;;;;6048255;23;20018;-95
2023/01/29 13:33:40;;;;;;;0.00;0.00;;;;;;;;;;6048135;23;20070;-94
2023/01/29 13:36:13;;;;;;;0.85;0.32;;;;;;;;;;6071981;23;20025;-92
2023/01/29 13:38:40;;;;;;;0.30;0.30;;;;;;;;;;6049580;23;20014;-93
2023/01/29 13:41:11;;;;;;;0.00;0.00;;;;;;;;;;6048437;23;20029;-94
2023/01/29 13:43:38;;;;;;;0.25;0.25;;;;;;;;;;6072238;23;20014;-95
2023/01/29 13:46:16;;;;;;;1.85;0.40;;;;;;;;;;6048320;23;20046;-93
2023/01/29 13:48:45;;;;;;;0.45;0.20;;;;;;;;;;6050262;23;20046;-95
2023/01/29 13:51:15;;;;;;;0.52;0.13;;;;;;;;;;6047856;23;20010;-96
2023/01/29 13:53:42;;;;;;;1.15;0.17;;;;;;;;;;6072154;23;20042;-94
2023/01/29 13:56:28;;;;;;;0.00;0.00;;;;;;;;;;6048432;23;20014;-93
2023/01/29 13:58:54;;;;;;;2.17;0.45;;;;;;;;;;6048865;23;20018;-95
2023/01/29 14:01:39;;;;;;;0.90;0.70;;;;;;;;;;6048585;23;20026;-93
2023/01/29 14:04:27;;;;;;;0.22;0.20;;;;;;;;;;6048238;23;20050;-94
2023/01/29 14:06:54;;;;;;;0.40;0.20;;;;;;;;;;6047882;23;20355;-93
2023/01/29 14:09:30;;;;;;;1.65;0.45;;;;;;;;;;6048347;23;20097;-93
2023/01/29 14:11:56;;;;;;;0.00;0.00;;;;;;;;;;6072690;23;20046;-94
2023/01/29 14:14:48;;;;;;;0.00;0.00;;;;;;;;;;6048698;23;20014;-93
2023/01/29 14:17:15;;;;;;;0.10;0.10;;;;;;;;;;6048051;23;20387;-95
2023/01/29 14:20:02;;;;;;;0.22;0.00;;;;;;;;;;6047958;23;20443;-93
2023/01/29 14:22:31;;;;;;;0.05;0.03;;;;;;;;;;6050763;23;20014;-93
2023/01/29 14:25:00;;;;;;;1.30;0.28;;;;;;;;;;6072453;23;20019;-92
2023/01/29 14:27:26;;;;;;;0.75;0.75;;;;;;;;;;6048067;23;20023;-95
2023/01/29 14:29:58;;;;;;;1.00;0.22;;;;;;;;;;6047820;23;20025;-94
2023/01/29 14:32:25;;;;;;;0.57;0.40;;;;;;;;;;6048506;23;20018;-95
2023/01/29 14:35:04;;;;;;;0.10;0.10;;;;;;;;;;6071830;23;20070;-94
2023/01/29 14:37:39;;;;;;;0.47;0.00;;;;;;;;;;6073072;23;20015;-94
2023/01/29 14:40:11;;;;;;;0.10;0.10;;;;;;;;;;6047851;23;20414;-95
2023/01/29 14:42:39;;;;;;;0.00;0.00;;;;;;;;;;6048392;23;20014;-95
2023/01/29 14:45:10;;;;;;;1.95;0.98;;;;;;;;;;6047739;23;20018;-95
2023/01/29 14:47:36;;;;;;;0.10;0.10;;;;;;;;;;6047895;23;20024;-93
2023/01/29 14:50:20;;;;;;;0.10;0.10;;;;;;;;;;6048352;23;20050;-93
2023/01/29 14:52:49;;;;;;;3.92;0.40;;;;;;;;;;6050464;23;20022;-93
2023/01/29 14:55:25;;;;;;;0.35;0.30;;;;;;;;;;6050749;23;20019;-94
2023/01/29 14:57:51;;;;;;;0.20;0.10;;;;;;;;;;6075172;23;20050;-94
2023/01/29 15:00:22;;;;;;;0.35;0.03;;;;;;;;;;6049606;23;20014;-94
2023/01/29 15:02:51;;;;;;;2.20;0.65;;;;;;;;;;6050246;23;20018;-93
2023/01/29 15:05:22;;;;;;;0.00;0.00;;;;;;;;;;6074551;23;20089;-94
2023/01/29 15:07:54;;;;;;;0.10;0.00;;;;;;;;;;6049287;23;20030;-95
2023/01/29 15:10:22;;;;;;;0.52;0.30;;;;;;;;;;6046747;23;20079;-93
2023/01/29 15:13:04;;;;;;;0.30;0.20;;;;;;;;;;6021475;23;20019;-93
2023/01/29 15:15:48;;;;;;;1.60;0.93;;;;;;;;;;6020523;23;20053;-93
2023/01/29 15:18:36;;;;;;;0.10;0.10;;;;;;;;;;6044499;23;20318;-93
2023/01/29 15:21:11;;;;;;;0.00;0.00;;;;;;;;;;6020710;23;20066;-93
2023/01/29 15:23:37;;;;;;;0.00;0.00;;;;;;;;;;6015127;23;20337;-92
2023/01/29 15:26:07;;;;;;;1.77;0.35;;;;;;;;;;6023187;23;20017;-94
2023/01/29 15:28:34;;;;;;;1.77;0.47;;;;;;;;;;6050235;23;20018;-93
2023/01/29 15:31:03;;;;;;;0.52;0.38;;;;;;;;;;6049054;23;20014;-95
2023/01/29 15:33:29;;;;;;;1.00;0.35;;;;;;;;;;6051024;23;20011;-94